KDWX

Details ICAO KDWX
Name DIXON
Region United States
Timezone America/Denver (UTC-6.0)
Plans Departing 1
Arriving 3
Stats Elevation 6,520 ft / 1,987 m (AMSL)
Location 41.036729° -107.495433°
Runways 1
Magnetic Variation 9.549° E
Sunrise 2018-05-24 11:45:59 UTC / 2018-05-24 05:45:59 Local
Sunset 2018-05-25 02:30:34 UTC / 2018-05-24 20:30:34 Local
Advertisement - Login to hide

Runways

ID Width Length Bearing (true) Bearing (mag) Surface Threshold Offset Overrun Length
06 75 ft / 23 m 5,483 ft / 1,671 m 70.79° 61.24° Asphalt 0 ft / 0 m 0 ft / 0 m
24 75 ft / 23 m 5,483 ft / 1,671 m 250.81° 241.26° Asphalt 0 ft / 0 m 0 ft / 0 m

Map

Weather


0- 5 10 15 20 25 30 35+ Temperature / ° C

Clouds and Precipitation
Forecast for 2018-05-24 06:00 UTC. Updated 3 hours ago

Ground ~20,000 ft ~40,000 ft Winds

METAR

KDWX 240815Z AUTO 06004KT 10SM BKN120 06/01 A3020 RMK AO2 T00560007

TAF

Not found

Frequencies

Recorded 119.42 MHz AWOS A
Unicom 122.90 MHz CTAF
Warning: Do not use this data for real-world aviation or navigation. No guarantee of current accuracy is given.